sensor_id;sensor_type;location;lat;lon;timestamp;P1;durP1;ratioP1;P2;durP2;ratioP2
70744;SDS011;59284;31.390;34.904;2023-06-14T00:00:17;11.03;;;2.83;;
70744;SDS011;59284;31.390;34.904;2023-06-14T00:02:43;13.10;;;2.80;;
70744;SDS011;59284;31.390;34.904;2023-06-14T00:05:08;10.87;;;2.60;;
70744;SDS011;59284;31.390;34.904;2023-06-14T00:07:34;12.57;;;2.63;;
70744;SDS011;59284;31.390;34.904;2023-06-14T00:10:02;7.35;;;2.08;;
70744;SDS011;59284;31.390;34.904;2023-06-14T00:12:29;11.63;;;2.55;;
70744;SDS011;59284;31.390;34.904;2023-06-14T00:14:54;9.03;;;1.90;;
70744;SDS011;59284;31.390;34.904;2023-06-14T00:17:20;6.57;;;2.07;;
70744;SDS011;59284;31.390;34.904;2023-06-14T00:19:46;8.43;;;1.83;;
70744;SDS011;59284;31.390;34.904;2023-06-14T00:22:12;7.32;;;1.60;;
70744;SDS011;59284;31.390;34.904;2023-06-14T00:24:37;7.87;;;1.97;;
70744;SDS011;59284;31.390;34.904;2023-06-14T00:27:03;10.80;;;1.70;;
70744;SDS011;59284;31.390;34.904;2023-06-14T00:29:29;7.35;;;2.53;;
70744;SDS011;59284;31.390;34.904;2023-06-14T00:31:55;8.93;;;1.60;;
70744;SDS011;59284;31.390;34.904;2023-06-14T00:34:20;9.47;;;1.80;;
70744;SDS011;59284;31.390;34.904;2023-06-14T00:36:46;9.40;;;1.80;;
70744;SDS011;59284;31.390;34.904;2023-06-14T00:39:11;12.60;;;1.67;;
70744;SDS011;59284;31.390;34.904;2023-06-14T00:41:37;6.40;;;1.40;;
70744;SDS011;59284;31.390;34.904;2023-06-14T00:44:03;7.30;;;1.88;;
70744;SDS011;59284;31.390;34.904;2023-06-14T00:46:29;5.27;;;1.50;;
70744;SDS011;59284;31.390;34.904;2023-06-14T00:48:55;6.68;;;1.70;;
70744;SDS011;59284;31.390;34.904;2023-06-14T00:51:22;6.50;;;1.67;;
70744;SDS011;59284;31.390;34.904;2023-06-14T00:53:48;7.73;;;1.40;;
70744;SDS011;59284;31.390;34.904;2023-06-14T00:56:14;7.67;;;1.63;;
70744;SDS011;59284;31.390;34.904;2023-06-14T00:58:40;6.60;;;1.83;;
70744;SDS011;59284;31.390;34.904;2023-06-14T01:01:06;10.73;;;1.92;;
70744;SDS011;59284;31.390;34.904;2023-06-14T01:03:31;10.15;;;1.95;;
70744;SDS011;59284;31.390;34.904;2023-06-14T01:06:05;8.93;;;2.00;;
70744;SDS011;59284;31.390;34.904;2023-06-14T01:08:51;5.50;;;1.33;;
70744;SDS011;59284;31.390;34.904;2023-06-14T01:11:33;10.70;;;1.95;;
70744;SDS011;59284;31.390;34.904;2023-06-14T01:14:04;8.20;;;1.27;;
70744;SDS011;59284;31.390;34.904;2023-06-14T01:16:31;11.07;;;2.00;;
70744;SDS011;59284;31.390;34.904;2023-06-14T01:18:57;9.23;;;2.28;;
70744;SDS011;59284;31.390;34.904;2023-06-14T01:21:24;6.43;;;2.13;;
70744;SDS011;59284;31.390;34.904;2023-06-14T01:23:50;8.15;;;1.90;;
70744;SDS011;59284;31.390;34.904;2023-06-14T01:26:20;9.07;;;1.60;;
70744;SDS011;59284;31.390;34.904;2023-06-14T01:28:46;6.20;;;1.65;;
70744;SDS011;59284;31.390;34.904;2023-06-14T01:31:24;6.50;;;1.50;;
70744;SDS011;59284;31.390;34.904;2023-06-14T01:33:50;9.25;;;1.92;;
70744;SDS011;59284;31.390;34.904;2023-06-14T01:36:19;7.03;;;1.60;;
70744;SDS011;59284;31.390;34.904;2023-06-14T01:38:46;8.47;;;1.70;;
70744;SDS011;59284;31.390;34.904;2023-06-14T01:41:15;11.25;;;2.20;;
70744;SDS011;59284;31.390;34.904;2023-06-14T01:43:41;10.77;;;2.28;;
70744;SDS011;59284;31.390;34.904;2023-06-14T01:46:08;8.68;;;1.83;;
70744;SDS011;59284;31.390;34.904;2023-06-14T01:48:34;9.82;;;2.00;;
70744;SDS011;59284;31.390;34.904;2023-06-14T01:50:59;8.10;;;1.83;;
70744;SDS011;59284;31.390;34.904;2023-06-14T01:53:25;6.72;;;1.90;;
70744;SDS011;59284;31.390;34.904;2023-06-14T01:55:51;6.43;;;2.03;;
70744;SDS011;59284;31.390;34.904;2023-06-14T01:58:19;9.35;;;2.15;;
70744;SDS011;59284;31.390;34.904;2023-06-14T02:00:44;7.37;;;2.33;;
70744;SDS011;59284;31.390;34.904;2023-06-14T02:03:10;8.82;;;2.72;;
70744;SDS011;59284;31.390;34.904;2023-06-14T02:05:37;5.80;;;1.70;;
70744;SDS011;59284;31.390;34.904;2023-06-14T02:08:04;7.63;;;1.80;;
70744;SDS011;59284;31.390;34.904;2023-06-14T02:10:30;11.00;;;1.83;;
70744;SDS011;59284;31.390;34.904;2023-06-14T02:12:56;10.57;;;2.40;;
70744;SDS011;59284;31.390;34.904;2023-06-14T02:15:21;7.70;;;1.87;;
70744;SDS011;59284;31.390;34.904;2023-06-14T02:17:48;8.93;;;2.25;;
70744;SDS011;59284;31.390;34.904;2023-06-14T02:20:17;10.38;;;2.08;;
70744;SDS011;59284;31.390;34.904;2023-06-14T02:22:43;6.90;;;1.90;;
70744;SDS011;59284;31.390;34.904;2023-06-14T02:25:09;5.53;;;1.70;;
70744;SDS011;59284;31.390;34.904;2023-06-14T02:27:35;7.85;;;2.10;;
70744;SDS011;59284;31.390;34.904;2023-06-14T02:30:00;7.37;;;1.70;;
70744;SDS011;59284;31.390;34.904;2023-06-14T02:32:26;9.43;;;1.90;;
70744;SDS011;59284;31.390;34.904;2023-06-14T02:34:52;12.07;;;2.40;;
70744;SDS011;59284;31.390;34.904;2023-06-14T02:37:18;8.77;;;2.20;;
70744;SDS011;59284;31.390;34.904;2023-06-14T02:39:44;13.13;;;1.83;;
70744;SDS011;59284;31.390;34.904;2023-06-14T02:42:10;5.85;;;1.50;;
70744;SDS011;59284;31.390;34.904;2023-06-14T02:44:36;11.20;;;1.92;;
70744;SDS011;59284;31.390;34.904;2023-06-14T02:47:02;13.47;;;2.00;;
70744;SDS011;59284;31.390;34.904;2023-06-14T02:49:28;8.88;;;1.67;;
70744;SDS011;59284;31.390;34.904;2023-06-14T02:51:54;5.75;;;2.00;;
70744;SDS011;59284;31.390;34.904;2023-06-14T02:54:47;12.68;;;1.95;;
70744;SDS011;59284;31.390;34.904;2023-06-14T02:57:37;5.03;;;1.57;;
70744;SDS011;59284;31.390;34.904;2023-06-14T03:00:28;12.00;;;1.73;;
70744;SDS011;59284;31.390;34.904;2023-06-14T03:03:18;7.45;;;1.67;;
70744;SDS011;59284;31.390;34.904;2023-06-14T03:06:10;7.43;;;1.98;;
70744;SDS011;59284;31.390;34.904;2023-06-14T03:09:03;8.60;;;1.70;;
70744;SDS011;59284;31.390;34.904;2023-06-14T03:11:34;8.23;;;2.47;;
70744;SDS011;59284;31.390;34.904;2023-06-14T03:14:00;14.80;;;1.95;;
70744;SDS011;59284;31.390;34.904;2023-06-14T03:16:28;11.20;;;2.20;;
70744;SDS011;59284;31.390;34.904;2023-06-14T03:18:55;10.63;;;1.50;;
70744;SDS011;59284;31.390;34.904;2023-06-14T03:21:21;3.97;;;1.50;;
70744;SDS011;59284;31.390;34.904;2023-06-14T03:23:47;8.50;;;1.50;;
70744;SDS011;59284;31.390;34.904;2023-06-14T03:26:13;10.05;;;1.52;;
70744;SDS011;59284;31.390;34.904;2023-06-14T03:28:45;5.57;;;1.95;;
70744;SDS011;59284;31.390;34.904;2023-06-14T03:31:12;10.30;;;2.13;;
70744;SDS011;59284;31.390;34.904;2023-06-14T03:33:38;5.65;;;1.70;;
70744;SDS011;59284;31.390;34.904;2023-06-14T03:36:05;8.13;;;2.05;;
70744;SDS011;59284;31.390;34.904;2023-06-14T03:38:31;9.67;;;1.80;;
70744;SDS011;59284;31.390;34.904;2023-06-14T03:40:57;10.32;;;2.03;;
70744;SDS011;59284;31.390;34.904;2023-06-14T03:43:23;9.05;;;1.83;;
70744;SDS011;59284;31.390;34.904;2023-06-14T03:45:48;7.33;;;1.73;;
70744;SDS011;59284;31.390;34.904;2023-06-14T03:48:14;6.38;;;1.42;;
70744;SDS011;59284;31.390;34.904;2023-06-14T03:50:40;5.03;;;1.33;;
70744;SDS011;59284;31.390;34.904;2023-06-14T03:53:08;6.00;;;1.45;;
70744;SDS011;59284;31.390;34.904;2023-06-14T03:55:33;8.97;;;1.30;;
70744;SDS011;59284;31.390;34.904;2023-06-14T03:58:00;8.70;;;1.70;;
70744;SDS011;59284;31.390;34.904;2023-06-14T04:00:26;6.88;;;1.45;;
70744;SDS011;59284;31.390;34.904;2023-06-14T04:02:52;6.25;;;1.70;;
70744;SDS011;59284;31.390;34.904;2023-06-14T04:05:18;7.60;;;1.50;;
70744;SDS011;59284;31.390;34.904;2023-06-14T04:07:44;5.87;;;1.40;;
70744;SDS011;59284;31.390;34.904;2023-06-14T04:10:14;7.80;;;1.30;;
70744;SDS011;59284;31.390;34.904;2023-06-14T04:12:40;3.95;;;1.38;;
70744;SDS011;59284;31.390;34.904;2023-06-14T04:15:06;7.50;;;1.40;;
70744;SDS011;59284;31.390;34.904;2023-06-14T04:17:33;9.95;;;1.70;;
70744;SDS011;59284;31.390;34.904;2023-06-14T04:20:00;6.37;;;1.43;;
70744;SDS011;59284;31.390;34.904;2023-06-14T04:22:26;7.00;;;1.40;;
70744;SDS011;59284;31.390;34.904;2023-06-14T04:24:55;6.10;;;1.50;;
70744;SDS011;59284;31.390;34.904;2023-06-14T04:27:25;6.40;;;1.83;;
70744;SDS011;59284;31.390;34.904;2023-06-14T04:29:51;13.80;;;1.70;;
70744;SDS011;59284;31.390;34.904;2023-06-14T04:32:25;5.80;;;1.43;;
70744;SDS011;59284;31.390;34.904;2023-06-14T04:34:54;5.45;;;1.20;;
70744;SDS011;59284;31.390;34.904;2023-06-14T04:37:22;5.85;;;1.45;;
70744;SDS011;59284;31.390;34.904;2023-06-14T04:39:48;5.07;;;1.25;;
70744;SDS011;59284;31.390;34.904;2023-06-14T04:42:15;4.70;;;1.20;;
70744;SDS011;59284;31.390;34.904;2023-06-14T04:44:42;4.50;;;1.48;;
70744;SDS011;59284;31.390;34.904;2023-06-14T04:47:08;5.85;;;1.40;;
70744;SDS011;59284;31.390;34.904;2023-06-14T04:49:37;8.15;;;1.60;;
70744;SDS011;59284;31.390;34.904;2023-06-14T04:52:05;7.90;;;1.90;;
70744;SDS011;59284;31.390;34.904;2023-06-14T04:54:31;5.00;;;1.50;;
70744;SDS011;59284;31.390;34.904;2023-06-14T04:56:58;5.15;;;1.67;;
70744;SDS011;59284;31.390;34.904;2023-06-14T04:59:24;7.18;;;1.58;;
70744;SDS011;59284;31.390;34.904;2023-06-14T05:01:50;5.30;;;1.80;;
70744;SDS011;59284;31.390;34.904;2023-06-14T05:04:16;11.40;;;2.53;;
70744;SDS011;59284;31.390;34.904;2023-06-14T05:06:43;5.70;;;1.55;;
70744;SDS011;59284;31.390;34.904;2023-06-14T05:09:19;8.38;;;1.85;;
70744;SDS011;59284;31.390;34.904;2023-06-14T05:11:46;9.85;;;1.98;;
70744;SDS011;59284;31.390;34.904;2023-06-14T05:14:13;5.18;;;2.10;;
70744;SDS011;59284;31.390;34.904;2023-06-14T05:16:39;8.83;;;2.30;;
70744;SDS011;59284;31.390;34.904;2023-06-14T05:19:05;11.05;;;2.58;;
70744;SDS011;59284;31.390;34.904;2023-06-14T05:21:31;17.50;;;3.55;;
70744;SDS011;59284;31.390;34.904;2023-06-14T05:23:58;8.68;;;2.20;;
70744;SDS011;59284;31.390;34.904;2023-06-14T05:26:24;11.85;;;2.53;;
70744;SDS011;59284;31.390;34.904;2023-06-14T05:28:54;6.43;;;2.00;;
70744;SDS011;59284;31.390;34.904;2023-06-14T05:31:22;12.88;;;2.70;;
70744;SDS011;59284;31.390;34.904;2023-06-14T05:33:49;8.05;;;2.90;;
70744;SDS011;59284;31.390;34.904;2023-06-14T05:36:15;9.65;;;2.65;;
70744;SDS011;59284;31.390;34.904;2023-06-14T05:38:40;11.00;;;3.10;;
70744;SDS011;59284;31.390;34.904;2023-06-14T05:41:06;15.60;;;3.20;;
70744;SDS011;59284;31.390;34.904;2023-06-14T05:43:31;9.27;;;2.90;;
70744;SDS011;59284;31.390;34.904;2023-06-14T05:45:57;12.27;;;3.10;;
70744;SDS011;59284;31.390;34.904;2023-06-14T05:48:23;9.85;;;2.60;;
70744;SDS011;59284;31.390;34.904;2023-06-14T05:50:48;7.83;;;2.60;;
70744;SDS011;59284;31.390;34.904;2023-06-14T05:53:14;14.50;;;2.70;;
70744;SDS011;59284;31.390;34.904;2023-06-14T05:55:40;8.33;;;3.33;;
70744;SDS011;59284;31.390;34.904;2023-06-14T05:58:05;7.40;;;2.40;;
70744;SDS011;59284;31.390;34.904;2023-06-14T06:00:31;11.63;;;3.13;;
70744;SDS011;59284;31.390;34.904;2023-06-14T06:02:57;7.88;;;2.80;;
70744;SDS011;59284;31.390;34.904;2023-06-14T06:05:23;7.93;;;2.60;;
70744;SDS011;59284;31.390;34.904;2023-06-14T06:07:48;8.40;;;2.28;;
70744;SDS011;59284;31.390;34.904;2023-06-14T06:10:14;6.90;;;2.60;;
70744;SDS011;59284;31.390;34.904;2023-06-14T06:12:43;4.77;;;2.20;;
70744;SDS011;59284;31.390;34.904;2023-06-14T06:15:09;9.32;;;2.95;;
70744;SDS011;59284;31.390;34.904;2023-06-14T06:17:38;10.52;;;2.70;;
70744;SDS011;59284;31.390;34.904;2023-06-14T06:20:04;5.82;;;2.42;;
70744;SDS011;59284;31.390;34.904;2023-06-14T06:22:33;5.93;;;2.63;;
70744;SDS011;59284;31.390;34.904;2023-06-14T06:24:59;6.90;;;2.80;;
70744;SDS011;59284;31.390;34.904;2023-06-14T06:27:24;8.77;;;2.88;;
70744;SDS011;59284;31.390;34.904;2023-06-14T06:29:50;6.45;;;2.53;;
70744;SDS011;59284;31.390;34.904;2023-06-14T06:32:17;7.27;;;3.13;;
70744;SDS011;59284;31.390;34.904;2023-06-14T06:34:42;6.95;;;2.78;;
70744;SDS011;59284;31.390;34.904;2023-06-14T06:37:08;8.43;;;2.50;;
70744;SDS011;59284;31.390;34.904;2023-06-14T06:39:34;5.33;;;2.07;;
70744;SDS011;59284;31.390;34.904;2023-06-14T06:42:00;7.67;;;3.10;;
70744;SDS011;59284;31.390;34.904;2023-06-14T06:44:25;8.77;;;2.50;;
70744;SDS011;59284;31.390;34.904;2023-06-14T06:46:51;7.90;;;3.37;;
70744;SDS011;59284;31.390;34.904;2023-06-14T06:49:17;7.90;;;2.95;;
70744;SDS011;59284;31.390;34.904;2023-06-14T06:51:42;23.70;;;3.60;;
70744;SDS011;59284;31.390;34.904;2023-06-14T06:54:09;9.57;;;3.38;;
70744;SDS011;59284;31.390;34.904;2023-06-14T06:56:35;10.25;;;2.95;;
70744;SDS011;59284;31.390;34.904;2023-06-14T06:59:01;8.57;;;2.70;;
70744;SDS011;59284;31.390;34.904;2023-06-14T07:01:26;7.20;;;3.23;;
70744;SDS011;59284;31.390;34.904;2023-06-14T07:03:54;8.77;;;4.13;;
70744;SDS011;59284;31.390;34.904;2023-06-14T07:06:20;9.98;;;4.20;;
70744;SDS011;59284;31.390;34.904;2023-06-14T07:08:46;8.82;;;3.88;;
70744;SDS011;59284;31.390;34.904;2023-06-14T07:11:13;6.80;;;3.20;;
70744;SDS011;59284;31.390;34.904;2023-06-14T07:13:39;7.72;;;3.15;;
70744;SDS011;59284;31.390;34.904;2023-06-14T07:16:05;9.27;;;3.33;;
70744;SDS011;59284;31.390;34.904;2023-06-14T07:18:31;11.25;;;4.53;;
70744;SDS011;59284;31.390;34.904;2023-06-14T07:20:57;12.23;;;3.63;;
70744;SDS011;59284;31.390;34.904;2023-06-14T07:23:25;9.23;;;4.03;;
70744;SDS011;59284;31.390;34.904;2023-06-14T07:25:51;16.83;;;4.28;;
70744;SDS011;59284;31.390;34.904;2023-06-14T07:28:17;5.90;;;3.13;;
70744;SDS011;59284;31.390;34.904;2023-06-14T07:30:43;9.07;;;4.07;;
70744;SDS011;59284;31.390;34.904;2023-06-14T07:33:09;10.53;;;6.63;;
70744;SDS011;59284;31.390;34.904;2023-06-14T07:35:35;7.57;;;3.72;;
70744;SDS011;59284;31.390;34.904;2023-06-14T07:38:01;8.65;;;4.60;;
70744;SDS011;59284;31.390;34.904;2023-06-14T07:40:26;12.63;;;4.83;;
70744;SDS011;59284;31.390;34.904;2023-06-14T07:42:52;10.32;;;4.30;;
70744;SDS011;59284;31.390;34.904;2023-06-14T07:45:19;10.13;;;3.65;;
70744;SDS011;59284;31.390;34.904;2023-06-14T07:47:45;10.38;;;3.80;;
70744;SDS011;59284;31.390;34.904;2023-06-14T07:50:11;9.23;;;4.57;;
70744;SDS011;59284;31.390;34.904;2023-06-14T07:52:38;8.05;;;3.83;;
70744;SDS011;59284;31.390;34.904;2023-06-14T07:55:03;8.30;;;3.70;;
70744;SDS011;59284;31.390;34.904;2023-06-14T07:57:30;12.95;;;4.35;;
70744;SDS011;59284;31.390;34.904;2023-06-14T07:59:56;7.05;;;3.85;;
70744;SDS011;59284;31.390;34.904;2023-06-14T08:02:21;8.90;;;4.37;;
70744;SDS011;59284;31.390;34.904;2023-06-14T08:04:47;10.10;;;3.67;;
70744;SDS011;59284;31.390;34.904;2023-06-14T08:07:13;7.13;;;3.72;;
70744;SDS011;59284;31.390;34.904;2023-06-14T08:09:41;8.73;;;4.05;;
70744;SDS011;59284;31.390;34.904;2023-06-14T08:12:06;10.25;;;5.40;;
70744;SDS011;59284;31.390;34.904;2023-06-14T08:14:34;11.73;;;4.20;;
70744;SDS011;59284;31.390;34.904;2023-06-14T08:17:00;11.23;;;4.55;;
70744;SDS011;59284;31.390;34.904;2023-06-14T08:19:26;11.32;;;3.58;;
70744;SDS011;59284;31.390;34.904;2023-06-14T08:21:52;11.13;;;3.50;;
70744;SDS011;59284;31.390;34.904;2023-06-14T08:24:20;12.43;;;5.10;;
70744;SDS011;59284;31.390;34.904;2023-06-14T08:26:49;8.00;;;3.92;;
70744;SDS011;59284;31.390;34.904;2023-06-14T08:29:15;10.50;;;5.20;;
70744;SDS011;59284;31.390;34.904;2023-06-14T08:31:41;6.63;;;3.53;;
70744;SDS011;59284;31.390;34.904;2023-06-14T08:34:06;8.07;;;4.30;;
70744;SDS011;59284;31.390;34.904;2023-06-14T08:36:32;11.88;;;4.53;;
70744;SDS011;59284;31.390;34.904;2023-06-14T08:38:57;10.93;;;5.10;;
70744;SDS011;59284;31.390;34.904;2023-06-14T08:41:23;9.30;;;4.07;;
70744;SDS011;59284;31.390;34.904;2023-06-14T08:43:52;9.95;;;4.25;;
70744;SDS011;59284;31.390;34.904;2023-06-14T08:46:18;9.00;;;4.03;;
70744;SDS011;59284;31.390;34.904;2023-06-14T08:48:50;9.80;;;3.90;;
70744;SDS011;59284;31.390;34.904;2023-06-14T08:51:20;8.23;;;4.63;;
70744;SDS011;59284;31.390;34.904;2023-06-14T08:53:55;9.52;;;4.70;;
70744;SDS011;59284;31.390;34.904;2023-06-14T08:56:27;9.63;;;4.73;;
70744;SDS011;59284;31.390;34.904;2023-06-14T08:58:54;9.25;;;4.47;;
70744;SDS011;59284;31.390;34.904;2023-06-14T09:01:21;9.20;;;3.80;;
70744;SDS011;59284;31.390;34.904;2023-06-14T09:03:48;12.32;;;5.40;;
70744;SDS011;59284;31.390;34.904;2023-06-14T09:06:15;11.45;;;3.83;;
70744;SDS011;59284;31.390;34.904;2023-06-14T09:08:45;8.70;;;4.03;;
70744;SDS011;59284;31.390;34.904;2023-06-14T09:11:12;8.35;;;3.63;;
70744;SDS011;59284;31.390;34.904;2023-06-14T09:13:39;12.13;;;5.65;;
70744;SDS011;59284;31.390;34.904;2023-06-14T09:16:06;9.65;;;4.65;;
70744;SDS011;59284;31.390;34.904;2023-06-14T09:18:38;12.93;;;4.35;;
70744;SDS011;59284;31.390;34.904;2023-06-14T09:21:06;8.63;;;4.07;;
70744;SDS011;59284;31.390;34.904;2023-06-14T09:23:36;9.40;;;5.60;;
70744;SDS011;59284;31.390;34.904;2023-06-14T09:26:06;8.88;;;4.43;;
70744;SDS011;59284;31.390;34.904;2023-06-14T09:28:36;9.50;;;4.35;;
70744;SDS011;59284;31.390;34.904;2023-06-14T09:31:02;10.57;;;4.60;;
70744;SDS011;59284;31.390;34.904;2023-06-14T09:33:27;9.43;;;5.20;;
70744;SDS011;59284;31.390;34.904;2023-06-14T09:35:56;10.60;;;4.70;;
70744;SDS011;59284;31.390;34.904;2023-06-14T09:38:22;11.30;;;6.07;;
70744;SDS011;59284;31.390;34.904;2023-06-14T09:40:47;11.10;;;5.68;;
70744;SDS011;59284;31.390;34.904;2023-06-14T09:43:14;6.90;;;4.83;;
70744;SDS011;59284;31.390;34.904;2023-06-14T09:45:41;10.77;;;5.22;;
70744;SDS011;59284;31.390;34.904;2023-06-14T09:48:10;10.65;;;4.68;;
70744;SDS011;59284;31.390;34.904;2023-06-14T09:50:37;8.13;;;5.38;;
70744;SDS011;59284;31.390;34.904;2023-06-14T09:53:06;7.80;;;5.60;;
70744;SDS011;59284;31.390;34.904;2023-06-14T09:55:36;13.48;;;7.18;;
70744;SDS011;59284;31.390;34.904;2023-06-14T09:58:05;7.93;;;4.63;;
70744;SDS011;59284;31.390;34.904;2023-06-14T10:00:32;11.77;;;6.32;;
70744;SDS011;59284;31.390;34.904;2023-06-14T10:05:53;13.07;;;5.45;;
70744;SDS011;59284;31.390;34.904;2023-06-14T10:08:20;9.88;;;6.47;;
70744;SDS011;59284;31.390;34.904;2023-06-14T10:10:50;13.70;;;6.77;;
70744;SDS011;59284;31.390;34.904;2023-06-14T10:13:16;10.18;;;7.00;;
70744;SDS011;59284;31.390;34.904;2023-06-14T10:15:57;10.80;;;6.35;;
70744;SDS011;59284;31.390;34.904;2023-06-14T10:18:30;9.03;;;6.80;;
70744;SDS011;59284;31.390;34.904;2023-06-14T10:21:02;7.90;;;6.80;;
70744;SDS011;59284;31.390;34.904;2023-06-14T10:23:33;10.75;;;7.20;;
70744;SDS011;59284;31.390;34.904;2023-06-14T10:26:02;10.20;;;7.03;;
70744;SDS011;59284;31.390;34.904;2023-06-14T10:28:28;12.20;;;6.33;;
70744;SDS011;59284;31.390;34.904;2023-06-14T10:33:34;12.60;;;6.38;;
70744;SDS011;59284;31.390;34.904;2023-06-14T10:36:08;10.07;;;6.75;;
70744;SDS011;59284;31.390;34.904;2023-06-14T10:39:10;11.20;;;6.85;;
70744;SDS011;59284;31.390;34.904;2023-06-14T10:41:40;10.57;;;6.63;;
70744;SDS011;59284;31.390;34.904;2023-06-14T10:46:38;14.05;;;7.30;;
70744;SDS011;59284;31.390;34.904;2023-06-14T10:49:04;11.88;;;6.60;;
70744;SDS011;59284;31.390;34.904;2023-06-14T10:51:38;10.57;;;6.82;;
70744;SDS011;59284;31.390;34.904;2023-06-14T10:54:12;8.10;;;6.03;;
70744;SDS011;59284;31.390;34.904;2023-06-14T10:56:50;7.90;;;6.10;;
70744;SDS011;59284;31.390;34.904;2023-06-14T10:59:17;8.77;;;5.88;;
70744;SDS011;59284;31.390;34.904;2023-06-14T11:04:44;9.30;;;6.40;;
70744;SDS011;59284;31.390;34.904;2023-06-14T11:07:38;11.60;;;5.93;;
70744;SDS011;59284;31.390;34.904;2023-06-14T11:12:45;10.40;;;5.78;;
70744;SDS011;59284;31.390;34.904;2023-06-14T11:15:13;7.90;;;4.95;;
70744;SDS011;59284;31.390;34.904;2023-06-14T11:17:39;8.93;;;4.93;;
70744;SDS011;59284;31.390;34.904;2023-06-14T11:20:08;8.65;;;5.00;;
70744;SDS011;59284;31.390;34.904;2023-06-14T11:22:43;8.57;;;5.88;;
70744;SDS011;59284;31.390;34.904;2023-06-14T11:25:10;6.63;;;5.07;;
70744;SDS011;59284;31.390;34.904;2023-06-14T11:27:38;6.15;;;4.68;;
70744;SDS011;59284;31.390;34.904;2023-06-14T11:30:06;5.53;;;4.03;;
70744;SDS011;59284;31.390;34.904;2023-06-14T11:32:33;8.13;;;4.90;;
70744;SDS011;59284;31.390;34.904;2023-06-14T11:34:58;11.13;;;5.47;;
70744;SDS011;59284;31.390;34.904;2023-06-14T11:37:25;6.78;;;4.45;;
70744;SDS011;59284;31.390;34.904;2023-06-14T11:39:57;6.40;;;4.63;;
70744;SDS011;59284;31.390;34.904;2023-06-14T11:42:24;7.55;;;4.50;;
70744;SDS011;59284;31.390;34.904;2023-06-14T11:44:51;6.50;;;4.33;;
70744;SDS011;59284;31.390;34.904;2023-06-14T11:47:17;5.90;;;4.28;;
70744;SDS011;59284;31.390;34.904;2023-06-14T11:49:42;8.93;;;5.27;;
70744;SDS011;59284;31.390;34.904;2023-06-14T11:52:08;7.45;;;4.50;;
70744;SDS011;59284;31.390;34.904;2023-06-14T11:54:34;6.93;;;3.97;;
70744;SDS011;59284;31.390;34.904;2023-06-14T11:56:59;8.55;;;4.60;;
70744;SDS011;59284;31.390;34.904;2023-06-14T11:59:25;8.00;;;4.55;;
70744;SDS011;59284;31.390;34.904;2023-06-14T12:01:55;11.13;;;4.77;;
70744;SDS011;59284;31.390;34.904;2023-06-14T12:04:24;7.15;;;3.97;;
70744;SDS011;59284;31.390;34.904;2023-06-14T12:06:50;6.93;;;4.38;;
70744;SDS011;59284;31.390;34.904;2023-06-14T12:09:18;4.88;;;3.45;;
70744;SDS011;59284;31.390;34.904;2023-06-14T12:11:44;8.20;;;4.63;;
70744;SDS011;59284;31.390;34.904;2023-06-14T12:14:10;5.43;;;4.22;;
70744;SDS011;59284;31.390;34.904;2023-06-14T12:16:39;8.13;;;3.90;;
70744;SDS011;59284;31.390;34.904;2023-06-14T12:19:11;10.13;;;4.63;;
70744;SDS011;59284;31.390;34.904;2023-06-14T12:21:41;7.57;;;4.25;;
70744;SDS011;59284;31.390;34.904;2023-06-14T12:24:07;8.93;;;5.07;;
70744;SDS011;59284;31.390;34.904;2023-06-14T12:26:33;10.40;;;4.40;;
70744;SDS011;59284;31.390;34.904;2023-06-14T12:28:59;9.82;;;4.70;;
70744;SDS011;59284;31.390;34.904;2023-06-14T12:31:25;4.70;;;3.73;;
70744;SDS011;59284;31.390;34.904;2023-06-14T12:33:51;7.60;;;5.13;;
70744;SDS011;59284;31.390;34.904;2023-06-14T12:36:17;6.72;;;4.78;;
70744;SDS011;59284;31.390;34.904;2023-06-14T12:38:42;9.70;;;5.10;;
70744;SDS011;59284;31.390;34.904;2023-06-14T12:41:08;9.43;;;4.17;;
70744;SDS011;59284;31.390;34.904;2023-06-14T12:43:34;5.23;;;3.63;;
70744;SDS011;59284;31.390;34.904;2023-06-14T12:46:00;8.73;;;4.20;;
70744;SDS011;59284;31.390;34.904;2023-06-14T12:48:25;5.80;;;4.03;;
70744;SDS011;59284;31.390;34.904;2023-06-14T12:50:56;7.28;;;3.85;;
70744;SDS011;59284;31.390;34.904;2023-06-14T12:53:22;9.55;;;4.03;;
70744;SDS011;59284;31.390;34.904;2023-06-14T12:55:48;6.03;;;4.10;;
70744;SDS011;59284;31.390;34.904;2023-06-14T12:58:14;5.73;;;4.20;;
70744;SDS011;59284;31.390;34.904;2023-06-14T13:00:42;8.13;;;4.15;;
70744;SDS011;59284;31.390;34.904;2023-06-14T13:03:07;5.28;;;3.58;;
70744;SDS011;59284;31.390;34.904;2023-06-14T13:05:33;7.63;;;4.07;;
70744;SDS011;59284;31.390;34.904;2023-06-14T13:08:00;6.63;;;4.07;;
70744;SDS011;59284;31.390;34.904;2023-06-14T13:10:26;5.80;;;3.60;;
70744;SDS011;59284;31.390;34.904;2023-06-14T13:12:52;9.00;;;4.10;;
70744;SDS011;59284;31.390;34.904;2023-06-14T13:15:17;7.50;;;4.35;;
70744;SDS011;59284;31.390;34.904;2023-06-14T13:17:43;5.33;;;3.80;;
70744;SDS011;59284;31.390;34.904;2023-06-14T13:20:13;7.38;;;4.18;;
70744;SDS011;59284;31.390;34.904;2023-06-14T13:22:40;4.70;;;3.70;;
70744;SDS011;59284;31.390;34.904;2023-06-14T13:25:06;5.93;;;3.57;;
70744;SDS011;59284;31.390;34.904;2023-06-14T13:27:32;9.50;;;4.10;;
70744;SDS011;59284;31.390;34.904;2023-06-14T13:29:57;5.70;;;3.10;;
70744;SDS011;59284;31.390;34.904;2023-06-14T13:32:23;5.47;;;3.90;;
70744;SDS011;59284;31.390;34.904;2023-06-14T13:34:49;5.63;;;4.07;;
70744;SDS011;59284;31.390;34.904;2023-06-14T13:37:15;5.95;;;3.83;;
70744;SDS011;59284;31.390;34.904;2023-06-14T13:39:41;5.93;;;3.90;;
70744;SDS011;59284;31.390;34.904;2023-06-14T13:42:07;7.73;;;4.20;;
70744;SDS011;59284;31.390;34.904;2023-06-14T13:44:34;6.00;;;3.92;;
70744;SDS011;59284;31.390;34.904;2023-06-14T13:46:59;8.45;;;3.60;;
70744;SDS011;59284;31.390;34.904;2023-06-14T13:49:25;8.40;;;4.00;;
70744;SDS011;59284;31.390;34.904;2023-06-14T13:51:50;7.50;;;3.97;;
70744;SDS011;59284;31.390;34.904;2023-06-14T13:54:18;6.63;;;3.77;;
70744;SDS011;59284;31.390;34.904;2023-06-14T13:56:45;8.13;;;3.53;;
70744;SDS011;59284;31.390;34.904;2023-06-14T13:59:11;7.10;;;3.22;;
70744;SDS011;59284;31.390;34.904;2023-06-14T14:01:37;6.43;;;3.80;;
70744;SDS011;59284;31.390;34.904;2023-06-14T14:04:02;6.57;;;3.70;;
70744;SDS011;59284;31.390;34.904;2023-06-14T14:06:30;4.50;;;3.03;;
70744;SDS011;59284;31.390;34.904;2023-06-14T14:08:56;4.70;;;3.10;;
70744;SDS011;59284;31.390;34.904;2023-06-14T14:11:22;7.10;;;3.70;;
70744;SDS011;59284;31.390;34.904;2023-06-14T14:13:47;4.55;;;3.40;;
70744;SDS011;59284;31.390;34.904;2023-06-14T14:16:14;6.00;;;4.10;;
70744;SDS011;59284;31.390;34.904;2023-06-14T14:18:39;6.17;;;4.50;;
70744;SDS011;59284;31.390;34.904;2023-06-14T14:21:05;6.57;;;3.75;;
70744;SDS011;59284;31.390;34.904;2023-06-14T14:23:31;4.90;;;3.83;;
70744;SDS011;59284;31.390;34.904;2023-06-14T14:25:56;5.57;;;3.47;;
70744;SDS011;59284;31.390;34.904;2023-06-14T14:28:22;6.37;;;3.40;;
70744;SDS011;59284;31.390;34.904;2023-06-14T14:30:48;6.25;;;3.80;;
70744;SDS011;59284;31.390;34.904;2023-06-14T14:33:14;6.27;;;2.93;;
70744;SDS011;59284;31.390;34.904;2023-06-14T14:35:42;7.13;;;3.35;;
70744;SDS011;59284;31.390;34.904;2023-06-14T14:38:09;5.80;;;3.38;;
70744;SDS011;59284;31.390;34.904;2023-06-14T14:40:35;4.30;;;3.10;;
70744;SDS011;59284;31.390;34.904;2023-06-14T14:43:00;6.05;;;3.88;;
70744;SDS011;59284;31.390;34.904;2023-06-14T14:45:26;8.27;;;3.33;;